Time;durP1;ratioP1;P1;durP2;ratioP2;P2;SDS_P1;SDS_P2;PMS_P1;PMS_P2;Temp;Humidity;BMP_temperature;BMP_pressure;BME280_temperature;BME280_humidity;BME280_pressure;Samples;Min_cycle;Max_cycle;Signal;HPM_P1;HPM_P2
2023/03/31 00:02:20;;;;;;;12.18;3.03;;;;;;;;;;5024412;28;20194;-66
2023/03/31 00:04:51;;;;;;;9.82;2.08;;;;;;;;;;5009050;28;20566;-66
2023/03/31 00:07:20;;;;;;;14.20;2.80;;;;;;;;;;5028266;28;20189;-66
2023/03/31 00:09:47;;;;;;;11.63;2.70;;;;;;;;;;5030845;28;20693;-66
2023/03/31 00:12:16;;;;;;;11.25;3.00;;;;;;;;;;5026702;28;20653;-66
2023/03/31 00:14:42;;;;;;;13.43;2.53;;;;;;;;;;5030408;28;20222;-66
2023/03/31 00:17:09;;;;;;;16.42;3.40;;;;;;;;;;5030221;28;20182;-66
2023/03/31 00:19:35;;;;;;;14.00;3.25;;;;;;;;;;5031431;28;20528;-66
2023/03/31 00:22:01;;;;;;;15.20;2.70;;;;;;;;;;5026011;28;20195;-67
2023/03/31 00:24:27;;;;;;;11.13;2.60;;;;;;;;;;5024974;28;20238;-66
2023/03/31 00:26:53;;;;;;;12.60;2.70;;;;;;;;;;5022793;28;20284;-67
2023/03/31 00:29:18;;;;;;;11.90;2.42;;;;;;;;;;5028982;28;20317;-67
2023/03/31 00:31:44;;;;;;;18.00;2.92;;;;;;;;;;5029870;28;20630;-67
2023/03/31 00:34:09;;;;;;;10.90;2.75;;;;;;;;;;5030802;28;20218;-67
2023/03/31 00:36:35;;;;;;;13.07;2.50;;;;;;;;;;5025450;28;20198;-67
2023/03/31 00:39:07;;;;;;;14.00;2.75;;;;;;;;;;5022864;28;20189;-67
2023/03/31 00:41:34;;;;;;;12.95;2.78;;;;;;;;;;5015596;28;20223;-67
2023/03/31 00:44:07;;;;;;;18.15;3.38;;;;;;;;;;5010626;28;20522;-67
2023/03/31 00:46:53;;;;;;;13.00;3.15;;;;;;;;;;5023801;28;20316;-67
2023/03/31 00:49:34;;;;;;;17.30;2.78;;;;;;;;;;5029210;28;20196;-67
2023/03/31 00:52:09;;;;;;;9.23;2.67;;;;;;;;;;5024303;28;20307;-66
2023/03/31 00:54:36;;;;;;;14.57;3.30;;;;;;;;;;5030446;28;20216;-66
2023/03/31 00:57:05;;;;;;;13.15;2.80;;;;;;;;;;5021807;28;20198;-66
2023/03/31 00:59:36;;;;;;;10.95;3.38;;;;;;;;;;5018157;28;20183;-66
2023/03/31 01:02:03;;;;;;;10.80;2.78;;;;;;;;;;5024858;28;20203;-67
2023/03/31 01:04:33;;;;;;;13.27;3.28;;;;;;;;;;5022247;28;20182;-67
2023/03/31 01:07:17;;;;;;;12.68;3.05;;;;;;;;;;5028262;28;20205;-67
2023/03/31 01:09:46;;;;;;;12.27;2.40;;;;;;;;;;5019078;28;20215;-67
2023/03/31 01:12:14;;;;;;;11.52;3.22;;;;;;;;;;5035197;28;20197;-67
2023/03/31 01:14:39;;;;;;;8.02;2.80;;;;;;;;;;5017961;28;20297;-66
2023/03/31 01:17:08;;;;;;;12.73;2.92;;;;;;;;;;5013289;28;20221;-66
2023/03/31 01:19:46;;;;;;;13.57;3.58;;;;;;;;;;5027715;28;20263;-67
2023/03/31 01:22:44;;;;;;;10.30;2.55;;;;;;;;;;5025267;28;20198;-67
2023/03/31 01:25:29;;;;;;;11.68;2.50;;;;;;;;;;5016237;28;20905;-67
2023/03/31 01:28:15;;;;;;;14.77;3.50;;;;;;;;;;5019681;28;20670;-67
2023/03/31 01:31:18;;;;;;;14.88;3.15;;;;;;;;;;5037201;28;20373;-67
2023/03/31 01:34:25;;;;;;;7.90;2.58;;;;;;;;;;5020552;28;20217;-67
2023/03/31 01:37:15;;;;;;;10.25;2.78;;;;;;;;;;5021458;28;20240;-67
2023/03/31 01:39:55;;;;;;;14.70;4.25;;;;;;;;;;5009883;28;20198;-67
2023/03/31 01:42:35;;;;;;;12.80;2.95;;;;;;;;;;5022677;28;20587;-67
2023/03/31 01:45:21;;;;;;;12.77;3.38;;;;;;;;;;5028357;28;20228;-67
2023/03/31 01:47:53;;;;;;;10.27;2.80;;;;;;;;;;5031189;28;20211;-67
2023/03/31 01:50:43;;;;;;;13.38;3.03;;;;;;;;;;5031353;28;20248;-67
2023/03/31 01:53:22;;;;;;;15.15;2.80;;;;;;;;;;5020780;28;20202;-67
2023/03/31 01:56:06;;;;;;;7.88;2.50;;;;;;;;;;5023519;28;20213;-67
2023/03/31 01:58:38;;;;;;;17.05;3.03;;;;;;;;;;5020239;28;20216;-67
2023/03/31 02:01:12;;;;;;;7.68;2.33;;;;;;;;;;5025753;28;20226;-67
2023/03/31 02:03:45;;;;;;;10.00;2.90;;;;;;;;;;5018091;28;20194;-67
2023/03/31 02:06:18;;;;;;;11.35;2.40;;;;;;;;;;5015213;28;20199;-67
2023/03/31 02:08:53;;;;;;;16.15;3.85;;;;;;;;;;5018658;28;20187;-67
2023/03/31 02:11:19;;;;;;;11.05;2.58;;;;;;;;;;5019588;28;20190;-67
2023/03/31 02:13:47;;;;;;;10.00;2.38;;;;;;;;;;5028403;28;20213;-67
2023/03/31 02:16:20;;;;;;;6.03;2.53;;;;;;;;;;5012897;28;20203;-67
2023/03/31 02:18:48;;;;;;;11.02;2.60;;;;;;;;;;5019146;28;20729;-67
2023/03/31 02:21:15;;;;;;;8.43;2.55;;;;;;;;;;5018788;28;20205;-67
2023/03/31 02:23:43;;;;;;;11.52;2.85;;;;;;;;;;5017916;28;20272;-70
2023/03/31 02:26:17;;;;;;;11.50;2.85;;;;;;;;;;5027411;28;20216;-71
2023/03/31 02:28:43;;;;;;;10.55;3.47;;;;;;;;;;5007612;28;20249;-71
2023/03/31 02:31:25;;;;;;;13.55;2.97;;;;;;;;;;5022247;28;20197;-72
2023/03/31 02:33:50;;;;;;;12.07;3.53;;;;;;;;;;5023624;28;20713;-72
2023/03/31 02:36:17;;;;;;;9.15;3.20;;;;;;;;;;5021801;28;20264;-73
2023/03/31 02:38:47;;;;;;;10.45;2.58;;;;;;;;;;5024317;28;20195;-72
2023/03/31 02:41:12;;;;;;;9.85;3.33;;;;;;;;;;5022982;28;20495;-72
2023/03/31 02:43:38;;;;;;;9.85;3.22;;;;;;;;;;5008612;28;20202;-73
2023/03/31 02:46:03;;;;;;;10.50;3.13;;;;;;;;;;5018563;28;20585;-71
2023/03/31 02:48:37;;;;;;;11.10;3.08;;;;;;;;;;5016090;28;20233;-70
2023/03/31 02:51:23;;;;;;;12.68;3.25;;;;;;;;;;5018183;28;20540;-71
2023/03/31 02:54:22;;;;;;;12.73;3.67;;;;;;;;;;5025954;28;20633;-71
2023/03/31 02:57:00;;;;;;;11.85;3.70;;;;;;;;;;5022300;28;20193;-72
2023/03/31 02:59:49;;;;;;;8.75;2.97;;;;;;;;;;5028610;28;20186;-74
2023/03/31 03:02:18;;;;;;;9.25;2.80;;;;;;;;;;5018399;28;20652;-74
2023/03/31 03:05:21;;;;;;;11.10;2.50;;;;;;;;;;5019211;28;20609;-72
2023/03/31 03:08:04;;;;;;;11.63;3.17;;;;;;;;;;5012677;28;20604;-71
2023/03/31 03:11:00;;;;;;;9.70;2.70;;;;;;;;;;5033868;28;20736;-70
2023/03/31 03:13:46;;;;;;;13.10;3.00;;;;;;;;;;5028226;28;20194;-71
2023/03/31 03:16:20;;;;;;;6.03;2.50;;;;;;;;;;5027995;28;20546;-71
2023/03/31 03:18:56;;;;;;;8.32;2.22;;;;;;;;;;5026415;28;20561;-70
2023/03/31 03:21:21;;;;;;;8.80;2.38;;;;;;;;;;5013384;28;20215;-70
2023/03/31 03:23:47;;;;;;;10.73;3.75;;;;;;;;;;5027013;28;20524;-70
2023/03/31 03:26:12;;;;;;;10.60;3.15;;;;;;;;;;5020920;28;20202;-70
2023/03/31 03:28:38;;;;;;;11.55;2.78;;;;;;;;;;5024525;28;20290;-70
2023/03/31 03:31:03;;;;;;;13.85;3.05;;;;;;;;;;5015269;28;20202;-70
2023/03/31 03:33:28;;;;;;;9.98;2.63;;;;;;;;;;5023298;28;20277;-70
2023/03/31 03:35:54;;;;;;;11.55;2.45;;;;;;;;;;5019062;28;20647;-69
2023/03/31 03:38:19;;;;;;;10.98;2.08;;;;;;;;;;5028720;28;20189;-70
2023/03/31 03:40:45;;;;;;;8.48;2.10;;;;;;;;;;5023299;28;20265;-69
2023/03/31 03:43:10;;;;;;;7.03;2.47;;;;;;;;;;5026075;28;20189;-70
2023/03/31 03:45:36;;;;;;;12.57;2.78;;;;;;;;;;5031486;28;20190;-69
2023/03/31 03:48:01;;;;;;;10.23;2.75;;;;;;;;;;5031230;28;20212;-69
2023/03/31 03:50:26;;;;;;;5.90;2.25;;;;;;;;;;5019622;28;20289;-69
2023/03/31 03:52:52;;;;;;;9.52;2.50;;;;;;;;;;5030628;28;20271;-69
2023/03/31 03:55:17;;;;;;;10.80;3.28;;;;;;;;;;5021383;28;20259;-69
2023/03/31 03:57:43;;;;;;;11.18;2.95;;;;;;;;;;5022917;28;20192;-69
2023/03/31 04:00:11;;;;;;;13.48;3.30;;;;;;;;;;5031853;28;20220;-69
2023/03/31 04:02:38;;;;;;;10.88;3.53;;;;;;;;;;5016208;28;20194;-69
2023/03/31 04:05:04;;;;;;;9.13;3.15;;;;;;;;;;5029484;28;20377;-69
2023/03/31 04:07:29;;;;;;;12.38;3.50;;;;;;;;;;5029293;28;20198;-69
2023/03/31 04:09:54;;;;;;;10.07;3.17;;;;;;;;;;5027926;28;20190;-69
2023/03/31 04:12:20;;;;;;;10.90;4.03;;;;;;;;;;5029005;28;20198;-69
2023/03/31 04:14:45;;;;;;;9.32;3.28;;;;;;;;;;5021376;28;20229;-69
2023/03/31 04:17:14;;;;;;;11.10;3.85;;;;;;;;;;5028347;28;20202;-69
2023/03/31 04:19:41;;;;;;;15.45;3.90;;;;;;;;;;5024513;28;20186;-69
2023/03/31 04:22:10;;;;;;;12.35;3.60;;;;;;;;;;5019098;28;20191;-69
2023/03/31 04:24:37;;;;;;;16.35;4.00;;;;;;;;;;5027746;28;20186;-69
2023/03/31 04:27:06;;;;;;;10.70;3.58;;;;;;;;;;5022130;28;20276;-69
2023/03/31 04:29:32;;;;;;;10.73;3.95;;;;;;;;;;5012002;28;20305;-69
2023/03/31 04:31:58;;;;;;;13.48;4.03;;;;;;;;;;5024364;28;20186;-69
2023/03/31 04:34:33;;;;;;;12.98;4.05;;;;;;;;;;5015003;28;20214;-70
2023/03/31 04:37:01;;;;;;;18.95;4.50;;;;;;;;;;5016895;28;20654;-69
2023/03/31 04:39:29;;;;;;;9.10;4.05;;;;;;;;;;5027486;28;20918;-69
2023/03/31 04:41:55;;;;;;;14.93;4.30;;;;;;;;;;5024316;28;20190;-70
2023/03/31 04:44:22;;;;;;;10.52;4.38;;;;;;;;;;5020742;28;20190;-71
2023/03/31 04:46:47;;;;;;;15.80;4.28;;;;;;;;;;5022549;28;20191;-72
2023/03/31 04:49:13;;;;;;;10.50;4.00;;;;;;;;;;5027873;28;20236;-70
2023/03/31 04:51:38;;;;;;;10.43;3.95;;;;;;;;;;5029263;28;20222;-71
2023/03/31 04:54:03;;;;;;;12.50;4.53;;;;;;;;;;5021225;28;20215;-71
2023/03/31 04:56:29;;;;;;;10.48;3.78;;;;;;;;;;5025791;28;20197;-71
2023/03/31 04:58:54;;;;;;;14.45;4.22;;;;;;;;;;5029142;28;20182;-72
2023/03/31 05:01:20;;;;;;;15.73;3.88;;;;;;;;;;5026347;28;20210;-71
2023/03/31 05:03:46;;;;;;;13.70;3.75;;;;;;;;;;5026841;28;20598;-72
2023/03/31 05:06:13;;;;;;;14.23;4.15;;;;;;;;;;5027287;28;20186;-73
2023/03/31 05:08:38;;;;;;;8.90;3.40;;;;;;;;;;5031201;28;20190;-72
2023/03/31 05:11:05;;;;;;;14.45;3.80;;;;;;;;;;5026654;28;20193;-72
2023/03/31 05:13:31;;;;;;;8.38;3.25;;;;;;;;;;5028438;28;20240;-72
2023/03/31 05:15:56;;;;;;;13.20;3.40;;;;;;;;;;5028698;28;20533;-72
2023/03/31 05:18:21;;;;;;;14.23;3.28;;;;;;;;;;5026781;28;20252;-71
2023/03/31 05:20:47;;;;;;;13.40;2.85;;;;;;;;;;5020451;28;20186;-71
2023/03/31 05:23:13;;;;;;;8.82;3.22;;;;;;;;;;5022243;28;20564;-72
2023/03/31 05:25:38;;;;;;;9.57;2.97;;;;;;;;;;5026578;28;20186;-72
2023/03/31 05:28:04;;;;;;;16.83;3.55;;;;;;;;;;5014626;28;20589;-72
2023/03/31 05:30:30;;;;;;;20.55;3.78;;;;;;;;;;5019888;28;20210;-72
2023/03/31 05:32:55;;;;;;;13.82;3.65;;;;;;;;;;5024594;28;20646;-72
2023/03/31 05:35:21;;;;;;;13.52;3.60;;;;;;;;;;5023109;28;20242;-73
2023/03/31 05:37:46;;;;;;;20.52;4.05;;;;;;;;;;5019562;28;20195;-73
2023/03/31 05:40:12;;;;;;;18.27;3.90;;;;;;;;;;5021321;28;20237;-74
2023/03/31 05:42:37;;;;;;;14.55;3.60;;;;;;;;;;5023959;28;20240;-72
2023/03/31 05:45:04;;;;;;;17.80;4.30;;;;;;;;;;5019587;28;20309;-74
2023/03/31 05:47:29;;;;;;;14.55;3.80;;;;;;;;;;5015618;28;20203;-73
2023/03/31 05:49:55;;;;;;;12.57;3.97;;;;;;;;;;5014325;28;20186;-73
2023/03/31 05:52:20;;;;;;;11.23;3.60;;;;;;;;;;5009800;28;20214;-73
2023/03/31 05:54:46;;;;;;;19.15;4.57;;;;;;;;;;5021629;28;20214;-73
2023/03/31 05:57:11;;;;;;;15.38;4.07;;;;;;;;;;5006300;28;20201;-73
2023/03/31 05:59:37;;;;;;;13.30;3.40;;;;;;;;;;5023719;28;20198;-73
2023/03/31 06:02:03;;;;;;;12.68;3.00;;;;;;;;;;5019815;28;20198;-73
2023/03/31 06:04:30;;;;;;;11.95;3.15;;;;;;;;;;5017016;28;20656;-74
2023/03/31 06:06:56;;;;;;;14.07;3.53;;;;;;;;;;5023239;28;20199;-74
2023/03/31 06:09:22;;;;;;;17.63;3.95;;;;;;;;;;5017965;28;20333;-73
2023/03/31 06:11:48;;;;;;;10.48;3.25;;;;;;;;;;4999603;28;20195;-73
2023/03/31 06:14:13;;;;;;;19.35;3.50;;;;;;;;;;5022675;28;20695;-74
2023/03/31 06:16:38;;;;;;;15.18;3.00;;;;;;;;;;5020773;28;20197;-72
2023/03/31 06:19:04;;;;;;;12.00;3.10;;;;;;;;;;5017121;28;20198;-73
2023/03/31 06:21:29;;;;;;;12.93;2.67;;;;;;;;;;5028185;28;20198;-71
2023/03/31 06:23:57;;;;;;;12.95;2.60;;;;;;;;;;5019143;28;20198;-71
2023/03/31 06:26:23;;;;;;;15.52;3.20;;;;;;;;;;5018810;28;20189;-70
2023/03/31 06:28:48;;;;;;;13.45;3.15;;;;;;;;;;5032834;28;20229;-72
2023/03/31 06:31:16;;;;;;;15.32;2.92;;;;;;;;;;5013040;28;20206;-72
2023/03/31 06:33:42;;;;;;;13.20;2.65;;;;;;;;;;5026619;28;20183;-72
2023/03/31 06:36:09;;;;;;;17.40;2.72;;;;;;;;;;5033841;28;20196;-72
2023/03/31 06:38:37;;;;;;;16.73;3.40;;;;;;;;;;5028334;28;20260;-71
2023/03/31 06:41:03;;;;;;;10.77;3.20;;;;;;;;;;5024483;28;20212;-71
2023/03/31 06:43:28;;;;;;;12.85;3.30;;;;;;;;;;5019337;28;20697;-71
2023/03/31 06:45:54;;;;;;;13.75;2.88;;;;;;;;;;5024434;28;20189;-71
2023/03/31 06:48:22;;;;;;;13.93;3.55;;;;;;;;;;5020316;28;20209;-70
2023/03/31 06:50:47;;;;;;;10.43;2.67;;;;;;;;;;5022420;28;20244;-70
2023/03/31 06:53:12;;;;;;;11.88;2.53;;;;;;;;;;5021575;28;20218;-70
2023/03/31 06:55:38;;;;;;;11.77;2.58;;;;;;;;;;5015955;28;20696;-70
2023/03/31 06:58:04;;;;;;;11.65;2.72;;;;;;;;;;5010549;28;20199;-71
2023/03/31 07:00:31;;;;;;;11.68;2.65;;;;;;;;;;5016341;28;20210;-71
2023/03/31 07:02:56;;;;;;;9.80;3.17;;;;;;;;;;5011823;28;20561;-71
2023/03/31 07:05:30;;;;;;;17.27;3.35;;;;;;;;;;5015198;28;20220;-71
2023/03/31 07:07:58;;;;;;;12.27;2.78;;;;;;;;;;5023774;28;20685;-71
2023/03/31 07:10:25;;;;;;;9.77;3.17;;;;;;;;;;5024656;28;20284;-71
2023/03/31 07:12:51;;;;;;;13.55;3.10;;;;;;;;;;5023292;28;20190;-71
2023/03/31 07:15:17;;;;;;;16.55;3.22;;;;;;;;;;5025056;28;20499;-71
2023/03/31 07:17:42;;;;;;;15.23;3.33;;;;;;;;;;5040126;28;20189;-70
2023/03/31 07:20:11;;;;;;;11.60;3.00;;;;;;;;;;5026253;28;20202;-69
2023/03/31 07:22:37;;;;;;;9.25;2.63;;;;;;;;;;5031177;28;20562;-69
2023/03/31 07:25:02;;;;;;;6.35;2.50;;;;;;;;;;5017078;28;20281;-69
2023/03/31 07:27:28;;;;;;;8.27;2.33;;;;;;;;;;5012392;28;20272;-69
2023/03/31 07:29:53;;;;;;;15.40;2.85;;;;;;;;;;5023000;28;20706;-69
2023/03/31 07:32:21;;;;;;;11.55;2.78;;;;;;;;;;5021543;28;20269;-69
2023/03/31 07:34:46;;;;;;;7.32;2.13;;;;;;;;;;5026204;28;20317;-68
2023/03/31 07:37:11;;;;;;;10.00;2.45;;;;;;;;;;5031960;28;20196;-69
2023/03/31 07:39:37;;;;;;;9.93;2.03;;;;;;;;;;5026847;28;20669;-69
2023/03/31 07:42:03;;;;;;;7.70;2.15;;;;;;;;;;5029057;28;20201;-68
2023/03/31 07:44:28;;;;;;;12.73;2.47;;;;;;;;;;5024306;28;20506;-69
2023/03/31 07:46:54;;;;;;;9.27;2.00;;;;;;;;;;5026658;28;20193;-68
2023/03/31 07:49:20;;;;;;;6.72;1.75;;;;;;;;;;5025968;28;20676;-69
2023/03/31 07:51:45;;;;;;;9.65;2.08;;;;;;;;;;5017203;28;20198;-69
2023/03/31 07:54:10;;;;;;;7.97;2.08;;;;;;;;;;5021270;28;20759;-69
2023/03/31 07:56:36;;;;;;;9.68;1.65;;;;;;;;;;5016647;28;20194;-69
2023/03/31 07:59:02;;;;;;;7.95;1.83;;;;;;;;;;5021517;28;20194;-69
2023/03/31 08:01:28;;;;;;;6.60;1.70;;;;;;;;;;5025714;28;20708;-69
2023/03/31 08:03:54;;;;;;;6.05;1.40;;;;;;;;;;5014779;28;20236;-68
2023/03/31 08:06:21;;;;;;;9.35;1.52;;;;;;;;;;5015593;28;20326;-69
2023/03/31 08:08:48;;;;;;;5.75;1.50;;;;;;;;;;5011293;28;20532;-70
2023/03/31 08:11:13;;;;;;;6.40;1.10;;;;;;;;;;5018676;28;20183;-68
2023/03/31 08:13:38;;;;;;;7.60;1.55;;;;;;;;;;5012751;28;20195;-67
2023/03/31 08:16:04;;;;;;;5.97;1.30;;;;;;;;;;5022077;28;20195;-68
2023/03/31 08:18:29;;;;;;;4.13;1.30;;;;;;;;;;5009461;28;20202;-67
2023/03/31 08:20:55;;;;;;;5.15;1.60;;;;;;;;;;5010007;28;20675;-67
2023/03/31 08:23:20;;;;;;;6.47;1.35;;;;;;;;;;5017692;28;20511;-68
2023/03/31 08:25:46;;;;;;;6.20;1.60;;;;;;;;;;5021633;28;20194;-67
2023/03/31 08:28:12;;;;;;;4.80;1.30;;;;;;;;;;5013276;28;20201;-68
2023/03/31 08:30:39;;;;;;;6.50;1.60;;;;;;;;;;5025603;28;20186;-68
2023/03/31 08:33:06;;;;;;;8.15;1.20;;;;;;;;;;5015686;28;20210;-68
2023/03/31 08:35:32;;;;;;;8.98;1.40;;;;;;;;;;5022060;28;20295;-68
2023/03/31 08:37:57;;;;;;;3.72;1.25;;;;;;;;;;5028696;28;20221;-68
2023/03/31 08:40:25;;;;;;;6.07;1.20;;;;;;;;;;5025942;28;20826;-68
2023/03/31 08:43:04;;;;;;;5.35;1.30;;;;;;;;;;5035370;28;20658;-68
2023/03/31 08:45:34;;;;;;;4.93;1.38;;;;;;;;;;5019363;28;20219;-68
2023/03/31 08:48:16;;;;;;;3.65;1.15;;;;;;;;;;5022558;28;20250;-69
2023/03/31 08:50:49;;;;;;;6.35;1.10;;;;;;;;;;5024102;28;20191;-69
2023/03/31 08:53:30;;;;;;;3.47;1.08;;;;;;;;;;5011240;28;20293;-70
2023/03/31 08:55:57;;;;;;;6.25;1.42;;;;;;;;;;5029642;28;20210;-70
2023/03/31 08:58:32;;;;;;;7.47;1.33;;;;;;;;;;5014059;28;20330;-70
2023/03/31 09:01:24;;;;;;;4.65;1.25;;;;;;;;;;5014930;28;20210;-72
2023/03/31 09:04:07;;;;;;;3.40;0.98;;;;;;;;;;5014411;28;20266;-71
2023/03/31 09:06:46;;;;;;;7.70;1.25;;;;;;;;;;5018431;28;20217;-69
2023/03/31 09:09:32;;;;;;;6.03;1.25;;;;;;;;;;5011767;28;20698;-70
2023/03/31 09:12:06;;;;;;;4.32;1.13;;;;;;;;;;5011389;28;20237;-70
2023/03/31 09:14:40;;;;;;;5.90;1.38;;;;;;;;;;5024715;28;20221;-70
2023/03/31 09:17:31;;;;;;;6.97;1.60;;;;;;;;;;5030278;28;20190;-70
2023/03/31 09:19:58;;;;;;;5.78;1.00;;;;;;;;;;5018693;28;20194;-71
2023/03/31 09:22:30;;;;;;;4.00;1.10;;;;;;;;;;5021000;28;20631;-71
2023/03/31 09:25:10;;;;;;;4.13;1.20;;;;;;;;;;5026612;28;20256;-70
2023/03/31 09:27:40;;;;;;;2.63;1.30;;;;;;;;;;5012205;28;20688;-70
2023/03/31 09:30:30;;;;;;;5.85;1.50;;;;;;;;;;5014869;28;20259;-70
2023/03/31 09:33:10;;;;;;;4.28;1.33;;;;;;;;;;5014323;28;20206;-70
2023/03/31 09:35:35;;;;;;;4.47;0.90;;;;;;;;;;5009784;28;20217;-70
2023/03/31 09:38:01;;;;;;;5.10;0.90;;;;;;;;;;5021083;28;20278;-70
2023/03/31 09:40:27;;;;;;;3.75;1.00;;;;;;;;;;5018363;28;20358;-71
2023/03/31 09:43:00;;;;;;;5.38;1.15;;;;;;;;;;5016299;28;20607;-71
2023/03/31 09:45:26;;;;;;;3.67;1.15;;;;;;;;;;5022684;28;20194;-71
2023/03/31 09:47:56;;;;;;;5.05;1.10;;;;;;;;;;5012450;28;20257;-71
2023/03/31 09:50:22;;;;;;;9.88;1.70;;;;;;;;;;5018867;28;20190;-71
2023/03/31 09:52:55;;;;;;;5.35;1.25;;;;;;;;;;5012241;28;20198;-73
2023/03/31 09:55:25;;;;;;;5.57;1.30;;;;;;;;;;5018514;28;20207;-72
2023/03/31 09:57:51;;;;;;;4.63;0.93;;;;;;;;;;5022644;28;20213;-71
2023/03/31 10:00:20;;;;;;;3.97;1.00;;;;;;;;;;5016331;28;20229;-72
2023/03/31 10:02:54;;;;;;;6.30;1.10;;;;;;;;;;5021217;28;20186;-72
2023/03/31 10:05:27;;;;;;;6.63;1.10;;;;;;;;;;5022906;28;20190;-72
2023/03/31 10:08:29;;;;;;;5.90;1.70;;;;;;;;;;5013433;28;20242;-72
2023/03/31 10:11:02;;;;;;;4.72;1.20;;;;;;;;;;5018052;28;20269;-73
2023/03/31 10:13:43;;;;;;;6.70;1.40;;;;;;;;;;5018472;28;20190;-72
2023/03/31 10:16:12;;;;;;;5.07;1.13;;;;;;;;;;5021634;28;20190;-71
2023/03/31 10:18:40;;;;;;;7.70;1.70;;;;;;;;;;5024319;28;20194;-71
2023/03/31 10:21:18;;;;;;;8.48;1.58;;;;;;;;;;5023247;28;20273;-71
2023/03/31 10:23:46;;;;;;;5.40;1.30;;;;;;;;;;5029106;28;20549;-70
2023/03/31 10:26:18;;;;;;;7.45;1.70;;;;;;;;;;5020383;28;20190;-70
2023/03/31 10:28:44;;;;;;;5.35;1.35;;;;;;;;;;5012923;28;20257;-69
2023/03/31 10:31:10;;;;;;;10.85;1.90;;;;;;;;;;5019783;28;20658;-69
2023/03/31 10:33:41;;;;;;;9.93;1.92;;;;;;;;;;5032265;28;20181;-69
2023/03/31 10:36:14;;;;;;;6.22;1.70;;;;;;;;;;5021350;28;20639;-69
2023/03/31 10:38:43;;;;;;;14.32;2.63;;;;;;;;;;5008813;28;20512;-69
2023/03/31 10:41:10;;;;;;;10.82;2.40;;;;;;;;;;5022630;28;20209;-67
2023/03/31 10:43:41;;;;;;;11.90;2.35;;;;;;;;;;5027710;28;20190;-68
2023/03/31 10:46:08;;;;;;;12.60;2.45;;;;;;;;;;5018994;28;20179;-67
2023/03/31 10:48:40;;;;;;;11.40;2.33;;;;;;;;;;5014074;28;20196;-68
2023/03/31 10:51:18;;;;;;;13.60;2.42;;;;;;;;;;5011292;28;20226;-67
2023/03/31 10:53:46;;;;;;;8.40;2.25;;;;;;;;;;5010104;28;20197;-69
2023/03/31 10:56:30;;;;;;;14.27;2.30;;;;;;;;;;5027227;28;20190;-68
2023/03/31 10:58:56;;;;;;;14.63;2.80;;;;;;;;;;5011091;28;20195;-69
2023/03/31 11:01:40;;;;;;;14.68;2.90;;;;;;;;;;5011411;28;20210;-68
2023/03/31 11:04:42;;;;;;;9.77;3.35;;;;;;;;;;5025141;28;20186;-68
2023/03/31 11:07:35;;;;;;;18.48;3.33;;;;;;;;;;5021638;28;20186;-68
2023/03/31 11:10:25;;;;;;;16.80;3.10;;;;;;;;;;5024691;28;20287;-68
2023/03/31 11:13:12;;;;;;;14.88;2.78;;;;;;;;;;5014134;28;20209;-69
2023/03/31 11:15:58;;;;;;;16.98;2.58;;;;;;;;;;5014287;28;20510;-69
2023/03/31 11:18:39;;;;;;;14.75;3.40;;;;;;;;;;5016253;28;20553;-68
2023/03/31 11:21:26;;;;;;;15.98;2.47;;;;;;;;;;5010273;28;20550;-68
2023/03/31 11:24:04;;;;;;;12.70;2.88;;;;;;;;;;5010842;28;20218;-68
2023/03/31 11:27:08;;;;;;;12.38;2.88;;;;;;;;;;5024343;28;20255;-68
2023/03/31 11:29:42;;;;;;;16.92;2.83;;;;;;;;;;5027721;28;20214;-68
2023/03/31 11:32:45;;;;;;;13.80;3.13;;;;;;;;;;5023327;28;20193;-68
2023/03/31 11:35:46;;;;;;;14.63;3.03;;;;;;;;;;5016002;28;20311;-68
2023/03/31 11:38:37;;;;;;;15.32;2.90;;;;;;;;;;5012588;28;20563;-68
2023/03/31 11:41:18;;;;;;;10.15;2.25;;;;;;;;;;5017109;28;20202;-68
2023/03/31 11:43:48;;;;;;;10.27;2.30;;;;;;;;;;5022101;28;20182;-68
2023/03/31 11:46:19;;;;;;;16.55;2.53;;;;;;;;;;5019304;28;20277;-67
2023/03/31 11:48:58;;;;;;;13.35;2.28;;;;;;;;;;5016695;28;20179;-68
2023/03/31 11:51:52;;;;;;;11.10;2.47;;;;;;;;;;5015960;28;20281;-67
2023/03/31 11:54:30;;;;;;;12.18;2.33;;;;;;;;;;5015006;28;20230;-68
2023/03/31 11:56:57;;;;;;;13.13;2.88;;;;;;;;;;5027311;28;20190;-67
2023/03/31 11:59:28;;;;;;;9.90;2.17;;;;;;;;;;5016848;28;20181;-67
2023/03/31 12:02:13;;;;;;;10.82;2.25;;;;;;;;;;5018571;28;20605;-68
2023/03/31 12:04:42;;;;;;;12.65;2.47;;;;;;;;;;5012829;28;20179;-67
2023/03/31 12:07:22;;;;;;;9.30;2.00;;;;;;;;;;5014528;28;20196;-67
2023/03/31 12:10:04;;;;;;;15.80;2.40;;;;;;;;;;5032033;28;20193;-67
2023/03/31 12:12:34;;;;;;;13.00;2.55;;;;;;;;;;5031354;28;20192;-67
2023/03/31 12:15:11;;;;;;;14.55;2.30;;;;;;;;;;5022774;28;20289;-67
2023/03/31 12:17:40;;;;;;;7.80;2.20;;;;;;;;;;5014303;28;20193;-67
2023/03/31 12:20:16;;;;;;;9.95;2.47;;;;;;;;;;5032133;28;20208;-68
2023/03/31 12:22:46;;;;;;;14.68;2.42;;;;;;;;;;5031700;28;20702;-67
2023/03/31 12:25:21;;;;;;;8.48;2.10;;;;;;;;;;5028272;28;20656;-68
2023/03/31 12:27:49;;;;;;;10.55;2.22;;;;;;;;;;5011376;28;21567;-67
2023/03/31 12:30:33;;;;;;;11.70;2.17;;;;;;;;;;5020784;28;20308;-67
2023/03/31 12:33:08;;;;;;;11.05;2.45;;;;;;;;;;5018153;28;20630;-68
2023/03/31 12:35:54;;;;;;;14.52;2.70;;;;;;;;;;5027128;28;20209;-68
2023/03/31 12:38:37;;;;;;;8.23;2.05;;;;;;;;;;5029613;28;20221;-67
2023/03/31 12:41:27;;;;;;;9.73;1.80;;;;;;;;;;5025673;28;20661;-67
2023/03/31 12:44:22;;;;;;;12.75;2.50;;;;;;;;;;5029565;28;20218;-67
2023/03/31 12:47:28;;;;;;;10.48;2.17;;;;;;;;;;5025724;28;20209;-67
2023/03/31 12:50:26;;;;;;;9.43;2.13;;;;;;;;;;5005024;28;20245;-67
2023/03/31 12:53:00;;;;;;;12.05;2.28;;;;;;;;;;5028407;28;20217;-67
2023/03/31 12:55:42;;;;;;;10.98;2.13;;;;;;;;;;5030260;28;20229;-67
2023/03/31 12:58:26;;;;;;;11.23;2.20;;;;;;;;;;5031396;28;20213;-67
2023/03/31 13:01:04;;;;;;;8.63;1.92;;;;;;;;;;5028924;28;20734;-67
2023/03/31 13:03:33;;;;;;;10.52;2.65;;;;;;;;;;5028838;28;20209;-67
2023/03/31 13:05:59;;;;;;;10.77;2.28;;;;;;;;;;5027081;28;20198;-67
2023/03/31 13:08:51;;;;;;;7.78;2.13;;;;;;;;;;5030672;28;20658;-67
2023/03/31 13:11:18;;;;;;;4.95;1.50;;;;;;;;;;5016317;28;20190;-67
2023/03/31 13:14:19;;;;;;;7.20;1.40;;;;;;;;;;5018010;28;20551;-67
2023/03/31 13:16:45;;;;;;;8.70;2.08;;;;;;;;;;5020590;28;20591;-67
2023/03/31 13:19:25;;;;;;;9.68;2.13;;;;;;;;;;5030077;28;20221;-67
2023/03/31 13:21:53;;;;;;;8.30;2.40;;;;;;;;;;5033120;28;20284;-67
2023/03/31 13:24:25;;;;;;;8.70;2.47;;;;;;;;;;5028222;28;20545;-67
2023/03/31 13:26:52;;;;;;;6.82;1.92;;;;;;;;;;5015516;28;20288;-67
2023/03/31 13:29:19;;;;;;;9.00;1.48;;;;;;;;;;5016069;28;20222;-67
2023/03/31 13:32:02;;;;;;;9.48;2.28;;;;;;;;;;5016446;28;20198;-67
2023/03/31 13:34:59;;;;;;;9.50;1.90;;;;;;;;;;5013356;28;20526;-67
2023/03/31 13:38:01;;;;;;;7.50;1.80;;;;;;;;;;5011085;28;20174;-67
2023/03/31 13:40:51;;;;;;;5.22;1.73;;;;;;;;;;5014684;28;20194;-67
2023/03/31 13:43:22;;;;;;;10.82;1.83;;;;;;;;;;5014095;28;20187;-67
2023/03/31 13:46:11;;;;;;;10.23;1.67;;;;;;;;;;5029021;28;20174;-67
2023/03/31 13:48:50;;;;;;;8.82;1.83;;;;;;;;;;5010673;28;20190;-67
2023/03/31 13:51:30;;;;;;;7.65;1.55;;;;;;;;;;5024093;28;20186;-68
2023/03/31 13:54:16;;;;;;;6.05;1.50;;;;;;;;;;5026927;28;20189;-67
2023/03/31 13:57:27;;;;;;;6.45;1.20;;;;;;;;;;5025871;28;20190;-67
2023/03/31 14:00:01;;;;;;;9.50;1.92;;;;;;;;;;5005966;28;20236;-67
2023/03/31 14:02:49;;;;;;;8.50;1.75;;;;;;;;;;5027019;28;20206;-68
2023/03/31 14:05:35;;;;;;;7.38;1.35;;;;;;;;;;5027596;28;20197;-68
2023/03/31 14:08:04;;;;;;;7.50;1.60;;;;;;;;;;5017234;28;20578;-68
2023/03/31 14:10:33;;;;;;;8.70;1.88;;;;;;;;;;5022231;28;20277;-68
2023/03/31 14:13:13;;;;;;;8.70;1.80;;;;;;;;;;5028424;28;20186;-68
2023/03/31 14:15:54;;;;;;;8.15;1.92;;;;;;;;;;5016194;28;20305;-67
2023/03/31 14:18:26;;;;;;;8.93;2.10;;;;;;;;;;5025462;28;20185;-67
2023/03/31 14:21:03;;;;;;;9.68;1.92;;;;;;;;;;5017516;28;20209;-68
2023/03/31 14:23:40;;;;;;;4.45;1.50;;;;;;;;;;5019307;28;20725;-68
2023/03/31 14:26:17;;;;;;;7.45;1.55;;;;;;;;;;5012815;28;20194;-67
2023/03/31 14:29:03;;;;;;;4.70;1.27;;;;;;;;;;5027523;28;20232;-67
2023/03/31 14:32:02;;;;;;;4.22;1.40;;;;;;;;;;5016105;28;20554;-68
2023/03/31 14:34:47;;;;;;;7.90;1.92;;;;;;;;;;5040366;28;20613;-67
2023/03/31 14:37:16;;;;;;;6.40;1.67;;;;;;;;;;5009685;28;20194;-68
2023/03/31 14:39:47;;;;;;;9.95;1.63;;;;;;;;;;5010503;28;20236;-68
2023/03/31 14:42:16;;;;;;;12.35;1.75;;;;;;;;;;5016782;28;20194;-68
2023/03/31 14:44:43;;;;;;;8.45;1.55;;;;;;;;;;5028514;28;20185;-68
2023/03/31 14:47:23;;;;;;;6.00;1.52;;;;;;;;;;5017539;28;20198;-66
2023/03/31 14:50:06;;;;;;;6.78;1.65;;;;;;;;;;5029199;28;20284;-67
2023/03/31 14:52:32;;;;;;;6.75;1.50;;;;;;;;;;5027470;28;20638;-66
2023/03/31 14:54:58;;;;;;;8.80;1.85;;;;;;;;;;5031783;28;20865;-67
2023/03/31 14:57:31;;;;;;;10.80;1.92;;;;;;;;;;5019140;28;20278;-66
2023/03/31 14:59:58;;;;;;;10.02;2.15;;;;;;;;;;5033596;28;20617;-68
2023/03/31 15:02:32;;;;;;;8.75;2.35;;;;;;;;;;5024156;28;20724;-71
2023/03/31 15:05:00;;;;;;;9.68;2.00;;;;;;;;;;5006871;28;20189;-70
2023/03/31 15:07:27;;;;;;;9.07;1.90;;;;;;;;;;5016059;28;20666;-70
2023/03/31 15:09:52;;;;;;;14.13;2.63;;;;;;;;;;5010220;28;20850;-71